Terminal Aerodrome Forecast
Issued by NWS

Home | Current Version | Previous Version | Graphics & Text | Print | Product List | Glossary On
Versions: 1 2 3 4 5 6 7 8 9 10 11 12 13 14
000
FTUS43 KUNR 020520
TAFGCC
TAF
KGCC 020520Z 0206/0306 22010KT P6SM SCT120
     FM021600 34010KT P6SM SCT080
      TEMPO 0300/0303 TSRA BKN060CB=

USA.gov is the U.S. government's official web portal to all federal, state and local government web resources and services.